Time;durP1;ratioP1;P1;durP2;ratioP2;P2;SDS_P1;SDS_P2;PMS_P1;PMS_P2;Temp;Humidity;BMP_temperature;BMP_pressure;BME280_temperature;BME280_humidity;BME280_pressure;Samples;Min_cycle;Max_cycle;Signal;HPM_P1;HPM_P2
2023/07/23 00:00:27;;;;;;;16.88;7.80;;;;;;;;;;4844323;29;20054;-83
2023/07/23 00:03:12;;;;;;;10.70;6.65;;;;;;;;;;4844256;29;20046;-82
2023/07/23 00:05:58;;;;;;;13.90;7.03;;;;;;;;;;4844242;29;20050;-83
2023/07/23 00:08:43;;;;;;;11.02;6.40;;;;;;;;;;4844068;29;20046;-84
2023/07/23 00:11:29;;;;;;;8.75;6.28;;;;;;;;;;4850974;29;20050;-85
2023/07/23 00:14:15;;;;;;;11.75;7.75;;;;;;;;;;4844490;29;20058;-83
2023/07/23 00:17:00;;;;;;;11.10;6.82;;;;;;;;;;4830039;29;20046;-83
2023/07/23 00:19:46;;;;;;;12.70;6.95;;;;;;;;;;4850643;29;20053;-85
2023/07/23 00:22:32;;;;;;;9.02;7.80;;;;;;;;;;4850069;29;20493;-83
2023/07/23 00:25:18;;;;;;;14.90;9.75;;;;;;;;;;4849822;29;20480;-83
2023/07/23 00:28:04;;;;;;;15.95;10.48;;;;;;;;;;4844127;29;20400;-86
2023/07/23 00:30:49;;;;;;;17.88;11.85;;;;;;;;;;4843858;29;20065;-81
2023/07/23 00:33:35;;;;;;;15.65;11.73;;;;;;;;;;4836017;29;20046;-83
2023/07/23 00:36:20;;;;;;;16.17;10.38;;;;;;;;;;4843813;29;20058;-83
2023/07/23 00:39:06;;;;;;;16.35;10.57;;;;;;;;;;4835970;29;20045;-86
2023/07/23 00:41:52;;;;;;;12.88;10.15;;;;;;;;;;4850042;29;20062;-86
2023/07/23 00:44:37;;;;;;;18.08;9.80;;;;;;;;;;4835574;29;20041;-83
2023/07/23 00:47:23;;;;;;;13.90;10.88;;;;;;;;;;4843829;29;20469;-85
2023/07/23 00:50:10;;;;;;;16.23;11.40;;;;;;;;;;4842762;29;20046;-85
2023/07/23 00:52:56;;;;;;;17.02;11.45;;;;;;;;;;4836052;29;20480;-85
2023/07/23 00:55:43;;;;;;;17.25;11.10;;;;;;;;;;4843663;29;20054;-85
2023/07/23 00:58:28;;;;;;;14.68;11.40;;;;;;;;;;4848409;29;20050;-85
2023/07/23 01:01:14;;;;;;;13.98;10.10;;;;;;;;;;4843115;29;20058;-88
2023/07/23 01:03:59;;;;;;;11.15;9.43;;;;;;;;;;4842477;29;20054;-83
2023/07/23 01:06:45;;;;;;;14.38;9.20;;;;;;;;;;4846833;29;20050;-82
2023/07/23 01:09:31;;;;;;;12.77;8.88;;;;;;;;;;4839400;29;20050;-88
2023/07/23 01:12:18;;;;;;;12.27;8.40;;;;;;;;;;4838707;29;20046;-85
2023/07/23 01:15:05;;;;;;;13.23;8.63;;;;;;;;;;4839344;29;20050;-87
2023/07/23 01:17:51;;;;;;;11.40;8.35;;;;;;;;;;4843277;29;20489;-83
2023/07/23 02:08:04;;;;;;;15.85;10.95;;;;;;;;;;4852302;29;20061;-87
2023/07/23 03:00:28;;;;;;;14.50;10.07;;;;;;;;;;4809152;29;20063;-85
2023/07/23 03:03:13;;;;;;;14.52;10.00;;;;;;;;;;4814102;29;20050;-85
2023/07/23 03:05:59;;;;;;;12.65;9.27;;;;;;;;;;4826643;29;20058;-81
2023/07/23 03:08:44;;;;;;;14.32;10.27;;;;;;;;;;4809137;29;20046;-84
2023/07/23 03:11:31;;;;;;;13.50;10.18;;;;;;;;;;4826459;29;20051;-84
2023/07/23 03:14:19;;;;;;;15.57;9.55;;;;;;;;;;4826129;29;20055;-83
2023/07/23 03:17:04;;;;;;;11.93;9.00;;;;;;;;;;4816434;29;20047;-85
2023/07/23 03:19:51;;;;;;;16.45;9.70;;;;;;;;;;4828443;29;20034;-82
2023/07/23 03:22:40;;;;;;;15.60;9.82;;;;;;;;;;4813854;29;20055;-84
2023/07/23 03:25:25;;;;;;;16.45;9.48;;;;;;;;;;4808608;29;20054;-83
2023/07/23 03:28:10;;;;;;;11.80;8.77;;;;;;;;;;4815105;29;20490;-83
2023/07/23 03:30:56;;;;;;;13.13;9.32;;;;;;;;;;4827468;29;20054;-86
2023/07/23 03:33:41;;;;;;;14.48;9.52;;;;;;;;;;4811994;29;20054;-86
2023/07/23 03:36:27;;;;;;;14.35;9.15;;;;;;;;;;4808788;29;20054;-83
2023/07/23 03:39:16;;;;;;;14.00;8.95;;;;;;;;;;4813458;29;20043;-83
2023/07/23 03:42:02;;;;;;;14.23;9.13;;;;;;;;;;4808397;29;20054;-85
2023/07/23 03:44:48;;;;;;;16.30;9.38;;;;;;;;;;4816034;29;20047;-87
2023/07/23 03:47:34;;;;;;;13.38;9.80;;;;;;;;;;4809572;29;20055;-86
2023/07/23 03:50:19;;;;;;;12.75;9.60;;;;;;;;;;4826224;29;20050;-86
2023/07/23 03:53:04;;;;;;;14.13;9.65;;;;;;;;;;4825847;29;20047;-83
2023/07/23 03:55:49;;;;;;;15.43;9.40;;;;;;;;;;4807952;29;20046;-87
2023/07/23 03:58:35;;;;;;;16.65;9.98;;;;;;;;;;4824133;29;20057;-85
2023/07/23 04:01:21;;;;;;;16.98;9.93;;;;;;;;;;4836841;29;20050;-82
2023/07/23 04:04:07;;;;;;;15.55;10.23;;;;;;;;;;4836534;29;20061;-85
2023/07/23 04:06:52;;;;;;;14.60;10.15;;;;;;;;;;4844194;29;20046;-85
2023/07/23 04:09:37;;;;;;;12.38;9.15;;;;;;;;;;4844099;29;20053;-85
2023/07/23 04:12:23;;;;;;;17.27;9.13;;;;;;;;;;4849619;29;20062;-85
2023/07/23 04:15:11;;;;;;;16.85;10.05;;;;;;;;;;4844341;29;20050;-81
2023/07/23 04:17:57;;;;;;;16.20;9.55;;;;;;;;;;4836424;29;20054;-84
2023/07/23 04:20:42;;;;;;;11.93;9.05;;;;;;;;;;4848237;29;20401;-83
2023/07/23 04:23:27;;;;;;;12.48;9.82;;;;;;;;;;4844647;29;20050;-85
2023/07/23 04:26:13;;;;;;;16.65;9.98;;;;;;;;;;4838766;29;20426;-86
2023/07/23 04:29:00;;;;;;;13.93;9.63;;;;;;;;;;4843760;29;20484;-82
2023/07/23 04:31:45;;;;;;;13.32;9.35;;;;;;;;;;4843541;29;20481;-85
2023/07/23 04:34:30;;;;;;;16.48;9.68;;;;;;;;;;4849959;29;20046;-85
2023/07/23 04:37:16;;;;;;;13.75;10.98;;;;;;;;;;4843949;29;20050;-83
2023/07/23 04:40:02;;;;;;;19.88;11.90;;;;;;;;;;4848887;29;20046;-85
2023/07/23 04:42:47;;;;;;;23.50;12.25;;;;;;;;;;4843927;29;20054;-86
2023/07/23 04:45:33;;;;;;;15.82;11.60;;;;;;;;;;4849914;29;20489;-84
2023/07/23 04:48:18;;;;;;;20.77;10.32;;;;;;;;;;4843567;29;20400;-86
2023/07/23 04:51:06;;;;;;;15.40;10.00;;;;;;;;;;4843684;29;20045;-88
2023/07/23 04:53:53;;;;;;;13.55;10.40;;;;;;;;;;4843622;29;20050;-87
2023/07/23 04:56:38;;;;;;;13.80;9.10;;;;;;;;;;4843310;29;20037;-87
2023/07/23 04:59:24;;;;;;;11.63;8.85;;;;;;;;;;4844311;29;20054;-87
2023/07/23 05:02:09;;;;;;;12.40;9.10;;;;;;;;;;4849336;29;20046;-82
2023/07/23 05:04:55;;;;;;;14.98;9.40;;;;;;;;;;4843948;29;20400;-81
2023/07/23 05:07:40;;;;;;;10.80;9.05;;;;;;;;;;4843237;29;20042;-84
2023/07/23 05:10:26;;;;;;;11.23;8.40;;;;;;;;;;4844062;29;20058;-87
2023/07/23 05:13:13;;;;;;;12.20;8.73;;;;;;;;;;4843175;29;20050;-83
2023/07/23 05:16:00;;;;;;;11.07;9.80;;;;;;;;;;4843237;29;20057;-82
2023/07/23 05:18:45;;;;;;;20.05;10.57;;;;;;;;;;4843358;29;20413;-83
2023/07/23 05:21:34;;;;;;;16.63;10.23;;;;;;;;;;4843059;29;20476;-82
2023/07/23 05:24:19;;;;;;;14.43;10.10;;;;;;;;;;4842930;29;20050;-82
2023/07/23 05:27:06;;;;;;;12.13;9.77;;;;;;;;;;4843365;29;20050;-88
2023/07/23 05:29:51;;;;;;;17.63;10.50;;;;;;;;;;4843622;29;20493;-83
2023/07/23 05:32:37;;;;;;;13.98;9.40;;;;;;;;;;4857203;29;20053;-82
2023/07/23 05:35:23;;;;;;;14.23;9.27;;;;;;;;;;4862449;29;20050;-82
2023/07/23 05:38:08;;;;;;;12.60;9.18;;;;;;;;;;4855383;29;20046;-83
2023/07/23 05:40:58;;;;;;;13.93;10.27;;;;;;;;;;4848963;29;20050;-83
2023/07/23 05:43:43;;;;;;;14.65;10.25;;;;;;;;;;4857642;29;20049;-87
2023/07/23 05:46:29;;;;;;;14.27;10.02;;;;;;;;;;4849457;29;20046;-83
2023/07/23 05:49:14;;;;;;;15.05;10.88;;;;;;;;;;4849201;29;20046;-86
2023/07/23 05:52:00;;;;;;;14.80;10.65;;;;;;;;;;4835081;29;20045;-83
2023/07/23 05:54:46;;;;;;;15.25;10.50;;;;;;;;;;4849523;29;20053;-82
2023/07/23 05:57:31;;;;;;;18.25;10.95;;;;;;;;;;4854811;29;20050;-83
2023/07/23 06:00:17;;;;;;;14.43;11.05;;;;;;;;;;4850115;29;20488;-86
2023/07/23 06:03:02;;;;;;;13.50;10.88;;;;;;;;;;4849084;29;20053;-84
2023/07/23 06:05:48;;;;;;;13.32;9.85;;;;;;;;;;4855072;29;20062;-82
2023/07/23 06:08:34;;;;;;;18.83;12.98;;;;;;;;;;4849309;29;20050;-85
2023/07/23 06:11:20;;;;;;;12.40;9.93;;;;;;;;;;4852418;29;20050;-87
2023/07/23 06:14:06;;;;;;;19.27;10.55;;;;;;;;;;4851591;29;20050;-81
2023/07/23 06:16:52;;;;;;;10.80;8.50;;;;;;;;;;4850217;29;20050;-77
2023/07/23 06:19:38;;;;;;;11.77;8.18;;;;;;;;;;4856114;29;20049;-77
2023/07/23 06:22:24;;;;;;;10.73;8.35;;;;;;;;;;4850579;29;20054;-78
2023/07/23 06:25:09;;;;;;;10.48;8.27;;;;;;;;;;4857690;29;20384;-77
2023/07/23 06:27:55;;;;;;;14.15;8.40;;;;;;;;;;4855664;29;20042;-78
2023/07/23 06:30:40;;;;;;;10.80;8.02;;;;;;;;;;4854668;29;20046;-78
2023/07/23 06:33:27;;;;;;;12.25;8.07;;;;;;;;;;4856812;29;20041;-78
2023/07/23 06:36:12;;;;;;;10.38;8.23;;;;;;;;;;4850680;29;20039;-78
2023/07/23 06:38:58;;;;;;;14.60;8.00;;;;;;;;;;4850386;29;20046;-78
2023/07/23 06:41:43;;;;;;;9.48;8.10;;;;;;;;;;4852730;29;20050;-76
2023/07/23 06:44:29;;;;;;;11.82;7.30;;;;;;;;;;4846080;29;20046;-77
2023/07/23 06:47:15;;;;;;;10.98;7.35;;;;;;;;;;4855520;29;20504;-77
2023/07/23 06:50:00;;;;;;;9.38;6.97;;;;;;;;;;4857739;29;20054;-79
2023/07/23 06:52:46;;;;;;;9.23;7.03;;;;;;;;;;4850790;29;20045;-79
2023/07/23 06:55:56;;;;;;;10.30;8.02;;;;;;;;;;4850650;29;20489;-77
2023/07/23 06:58:41;;;;;;;8.52;7.53;;;;;;;;;;4855346;29;20046;-77
2023/07/23 07:01:27;;;;;;;10.00;7.97;;;;;;;;;;4860982;29;20045;-77
2023/07/23 07:04:12;;;;;;;12.00;7.75;;;;;;;;;;4848535;29;20045;-78
2023/07/23 07:06:57;;;;;;;10.38;8.25;;;;;;;;;;4856019;29;20500;-77
2023/07/23 07:09:43;;;;;;;12.02;7.93;;;;;;;;;;4850466;29;20042;-78
2023/07/23 07:12:29;;;;;;;28.02;8.27;;;;;;;;;;4851936;29;20049;-78
2023/07/23 07:15:14;;;;;;;12.55;7.93;;;;;;;;;;4849774;29;20485;-79
2023/07/23 07:18:00;;;;;;;14.63;8.40;;;;;;;;;;4852308;29;20046;-79
2023/07/23 07:20:53;;;;;;;10.13;7.97;;;;;;;;;;4858289;29;20046;-77
2023/07/23 07:23:38;;;;;;;11.32;8.85;;;;;;;;;;4849118;29;20050;-77
2023/07/23 07:26:24;;;;;;;13.35;7.90;;;;;;;;;;4850294;29;20042;-78
2023/07/23 07:29:09;;;;;;;9.85;8.43;;;;;;;;;;4853420;29;20392;-79
2023/07/23 07:31:55;;;;;;;14.15;8.10;;;;;;;;;;4860422;29;20054;-76
2023/07/23 07:34:40;;;;;;;10.63;7.40;;;;;;;;;;4851011;29;20050;-77
2023/07/23 07:37:27;;;;;;;11.30;8.05;;;;;;;;;;4844493;29;20046;-76
2023/07/23 07:40:13;;;;;;;10.90;7.97;;;;;;;;;;4850743;29;20041;-76
2023/07/23 07:42:58;;;;;;;10.77;7.97;;;;;;;;;;4851098;29;20054;-79
2023/07/23 07:45:54;;;;;;;10.52;8.20;;;;;;;;;;4845961;29;20046;-78
2023/07/23 07:48:40;;;;;;;14.30;7.72;;;;;;;;;;4847937;29;20422;-78
2023/07/23 07:51:25;;;;;;;11.10;8.38;;;;;;;;;;4845122;29;20049;-77
2023/07/23 07:54:10;;;;;;;11.27;8.55;;;;;;;;;;4844506;29;20058;-78
2023/07/23 07:56:56;;;;;;;11.98;8.68;;;;;;;;;;4851434;29;20058;-79
2023/07/23 07:59:42;;;;;;;10.90;8.70;;;;;;;;;;4844823;29;20050;-79
2023/07/23 08:02:28;;;;;;;11.38;8.40;;;;;;;;;;4847177;29;20054;-80
2023/07/23 08:05:14;;;;;;;9.93;8.32;;;;;;;;;;4852263;29;20046;-81
2023/07/23 08:08:00;;;;;;;9.65;8.05;;;;;;;;;;4841115;29;20477;-81
2023/07/23 08:10:47;;;;;;;10.93;8.73;;;;;;;;;;4854935;29;20042;-82
2023/07/23 08:13:34;;;;;;;10.63;8.13;;;;;;;;;;4848858;29;20053;-81
2023/07/23 08:16:19;;;;;;;9.32;8.30;;;;;;;;;;4849165;29;20042;-81
2023/07/23 08:19:05;;;;;;;14.15;8.18;;;;;;;;;;4856418;29;20053;-81
2023/07/23 08:21:51;;;;;;;15.80;8.75;;;;;;;;;;4847619;29;20046;-82
2023/07/23 08:24:37;;;;;;;11.30;8.57;;;;;;;;;;4854883;29;20045;-82
2023/07/23 08:27:25;;;;;;;14.50;8.68;;;;;;;;;;4848277;29;20061;-82
2023/07/23 08:30:11;;;;;;;8.77;7.82;;;;;;;;;;4847396;29;20053;-83
2023/07/23 08:33:00;;;;;;;9.07;7.95;;;;;;;;;;4847056;29;20046;-83
2023/07/23 08:35:46;;;;;;;10.52;8.23;;;;;;;;;;4847962;29;20045;-83
2023/07/23 08:38:31;;;;;;;10.77;8.10;;;;;;;;;;4845409;29;20046;-82
2023/07/23 08:41:48;;;;;;;11.50;8.48;;;;;;;;;;4853267;29;20045;-82
2023/07/23 08:44:49;;;;;;;9.40;7.90;;;;;;;;;;4832322;29;20042;-82
2023/07/23 08:47:38;;;;;;;10.15;7.85;;;;;;;;;;4849831;29;20045;-80
2023/07/23 08:50:24;;;;;;;10.07;7.85;;;;;;;;;;4850238;29;20050;-81
2023/07/23 08:53:12;;;;;;;8.75;7.65;;;;;;;;;;4850084;29;20049;-81
2023/07/23 08:55:57;;;;;;;10.35;8.25;;;;;;;;;;4847549;29;20050;-80
2023/07/23 08:58:43;;;;;;;10.20;7.65;;;;;;;;;;4848479;29;20473;-81
2023/07/23 09:01:33;;;;;;;12.20;6.90;;;;;;;;;;4852072;29;20404;-81
2023/07/23 09:04:18;;;;;;;9.57;6.97;;;;;;;;;;4855023;29;20045;-83
2023/07/23 09:07:11;;;;;;;13.25;7.43;;;;;;;;;;4852158;29;20046;-81
2023/07/23 09:09:58;;;;;;;10.90;6.00;;;;;;;;;;4850714;29;20389;-81
2023/07/23 09:12:43;;;;;;;10.25;6.60;;;;;;;;;;4851358;29;20053;-81
2023/07/23 09:15:28;;;;;;;9.63;6.95;;;;;;;;;;4858427;29;20500;-81
2023/07/23 09:18:14;;;;;;;10.00;7.15;;;;;;;;;;4854374;29;20046;-81
2023/07/23 09:21:01;;;;;;;10.02;7.45;;;;;;;;;;4846392;29;20491;-82
2023/07/23 09:23:50;;;;;;;9.70;7.57;;;;;;;;;;4851799;29;20046;-81
2023/07/23 09:26:37;;;;;;;8.18;6.57;;;;;;;;;;4848416;29;20062;-83
2023/07/23 09:29:22;;;;;;;10.43;7.63;;;;;;;;;;4846765;29;20046;-82
2023/07/23 09:32:37;;;;;;;8.18;7.00;;;;;;;;;;4845903;29;20054;-82
2023/07/23 09:35:23;;;;;;;7.65;6.53;;;;;;;;;;4842354;29;20496;-83
2023/07/23 09:38:12;;;;;;;11.82;6.80;;;;;;;;;;4848280;29;20042;-83
2023/07/23 09:40:58;;;;;;;9.23;6.65;;;;;;;;;;4848215;29;20046;-83
2023/07/23 09:43:45;;;;;;;9.45;7.07;;;;;;;;;;4848984;29;20500;-82
2023/07/23 09:46:30;;;;;;;6.03;4.30;;;;;;;;;;4862839;29;20042;-81
2023/07/23 09:49:23;;;;;;;9.40;5.22;;;;;;;;;;4848375;29;20053;-83
2023/07/23 09:52:09;;;;;;;6.45;4.70;;;;;;;;;;4848740;29;20050;-82
2023/07/23 09:54:55;;;;;;;6.13;4.22;;;;;;;;;;4847628;29;20050;-82
2023/07/23 09:57:41;;;;;;;10.95;4.97;;;;;;;;;;4852010;29;20050;-81
2023/07/23 10:00:27;;;;;;;4.68;4.05;;;;;;;;;;4848630;29;20050;-83
2023/07/23 10:03:15;;;;;;;7.90;4.93;;;;;;;;;;4853919;29;20496;-80
2023/07/23 10:06:00;;;;;;;6.95;4.60;;;;;;;;;;4860634;29;20046;-81
2023/07/23 10:08:48;;;;;;;7.88;4.53;;;;;;;;;;4850029;29;20404;-83
2023/07/23 10:11:34;;;;;;;7.95;4.65;;;;;;;;;;4839590;29;20049;-79
2023/07/23 10:14:21;;;;;;;9.55;5.30;;;;;;;;;;4843553;29;20050;-80
2023/07/23 10:17:07;;;;;;;6.60;5.00;;;;;;;;;;4842580;29;20050;-80
2023/07/23 10:19:53;;;;;;;10.13;5.53;;;;;;;;;;4842556;29;20050;-80
2023/07/23 10:22:39;;;;;;;5.93;4.68;;;;;;;;;;4843916;29;20054;-79
2023/07/23 10:25:31;;;;;;;7.65;4.85;;;;;;;;;;4846022;29;20046;-80
2023/07/23 10:28:22;;;;;;;10.20;5.20;;;;;;;;;;4846439;29;20408;-80
2023/07/23 10:31:28;;;;;;;6.28;5.10;;;;;;;;;;4845796;29;20058;-79
2023/07/23 10:34:41;;;;;;;6.22;5.00;;;;;;;;;;4852230;29;20397;-80
2023/07/23 10:37:26;;;;;;;10.82;5.60;;;;;;;;;;4852653;29;20045;-78
2023/07/23 10:40:44;;;;;;;8.45;5.68;;;;;;;;;;4847144;29;20050;-79
2023/07/23 10:43:38;;;;;;;6.43;5.07;;;;;;;;;;4848331;29;20045;-78
2023/07/23 10:46:25;;;;;;;7.45;4.80;;;;;;;;;;4848934;29;20042;-78
2023/07/23 10:49:19;;;;;;;9.48;4.97;;;;;;;;;;4850541;29;20042;-78
2023/07/23 10:52:18;;;;;;;7.97;5.28;;;;;;;;;;4846408;29;20045;-79
2023/07/23 10:55:04;;;;;;;11.75;5.35;;;;;;;;;;4850935;29;20042;-79
2023/07/23 10:57:53;;;;;;;9.23;5.70;;;;;;;;;;4851189;29;20061;-78
2023/07/23 11:00:43;;;;;;;5.93;5.32;;;;;;;;;;4846044;29;20053;-79
2023/07/23 11:03:28;;;;;;;7.53;5.03;;;;;;;;;;4839225;29;20054;-80
2023/07/23 11:06:31;;;;;;;7.85;5.70;;;;;;;;;;4857267;29;20041;-78
2023/07/23 11:09:24;;;;;;;7.53;5.85;;;;;;;;;;4851096;29;20050;-80
2023/07/23 11:12:11;;;;;;;7.60;5.50;;;;;;;;;;4847508;29;20057;-79
2023/07/23 11:14:55;;;;;;;9.18;5.90;;;;;;;;;;4858668;29;20046;-80
2023/07/23 11:17:42;;;;;;;8.38;6.00;;;;;;;;;;4852575;29;20050;-80
2023/07/23 11:20:28;;;;;;;7.43;5.78;;;;;;;;;;4847175;29;20054;-78
2023/07/23 11:23:14;;;;;;;8.30;5.47;;;;;;;;;;4852143;29;20054;-79
2023/07/23 11:26:00;;;;;;;7.28;5.75;;;;;;;;;;4853819;29;20054;-78
2023/07/23 11:28:46;;;;;;;7.55;5.82;;;;;;;;;;4850694;29;20045;-79
2023/07/23 11:31:33;;;;;;;8.55;5.80;;;;;;;;;;4851611;29;20045;-79
2023/07/23 11:34:19;;;;;;;9.30;5.72;;;;;;;;;;4844330;29;20038;-79
2023/07/23 11:37:10;;;;;;;7.30;5.90;;;;;;;;;;4852707;29;20050;-79
2023/07/23 11:39:55;;;;;;;7.88;6.22;;;;;;;;;;4856245;29;20050;-79
2023/07/23 11:42:40;;;;;;;8.32;5.65;;;;;;;;;;4846469;29;20042;-79
2023/07/23 11:45:26;;;;;;;7.80;5.93;;;;;;;;;;4850465;29;20058;-79
2023/07/23 11:48:16;;;;;;;10.23;5.95;;;;;;;;;;4847210;29;20038;-79
2023/07/23 11:51:02;;;;;;;8.98;5.65;;;;;;;;;;4845396;29;20046;-80
2023/07/23 11:53:50;;;;;;;9.23;6.07;;;;;;;;;;4846743;29;20050;-79
2023/07/23 11:56:41;;;;;;;8.73;6.00;;;;;;;;;;4849505;29;20037;-80
2023/07/23 11:59:27;;;;;;;8.80;5.85;;;;;;;;;;4846499;29;20050;-78
2023/07/23 12:02:12;;;;;;;8.25;5.78;;;;;;;;;;4845683;29;20046;-79
2023/07/23 12:04:59;;;;;;;9.52;6.03;;;;;;;;;;4850889;29;20481;-79
2023/07/23 12:07:45;;;;;;;8.45;6.15;;;;;;;;;;4850828;29;20405;-78
2023/07/23 12:10:34;;;;;;;7.50;5.95;;;;;;;;;;4845198;29;20053;-78
2023/07/23 12:13:23;;;;;;;9.68;6.38;;;;;;;;;;4850186;29;20050;-78
2023/07/23 12:16:14;;;;;;;7.78;6.10;;;;;;;;;;4844214;29;20057;-78
2023/07/23 12:19:08;;;;;;;7.72;6.05;;;;;;;;;;4846912;29;20049;-78
2023/07/23 12:21:55;;;;;;;10.57;6.00;;;;;;;;;;4845727;29;20058;-77
2023/07/23 12:24:40;;;;;;;7.78;5.70;;;;;;;;;;4849623;29;20053;-79
2023/07/23 12:27:26;;;;;;;6.55;5.75;;;;;;;;;;4849361;29;20042;-79
2023/07/23 12:30:12;;;;;;;10.35;6.18;;;;;;;;;;4847801;29;20050;-79
2023/07/23 12:32:57;;;;;;;10.93;6.03;;;;;;;;;;4845811;29;20038;-79
2023/07/23 12:35:44;;;;;;;7.93;5.78;;;;;;;;;;4851604;29;20053;-80
2023/07/23 12:38:30;;;;;;;8.48;6.32;;;;;;;;;;4850587;29;20037;-80
2023/07/23 12:41:15;;;;;;;7.38;5.93;;;;;;;;;;4849860;29;20042;-80
2023/07/23 12:44:02;;;;;;;9.73;5.65;;;;;;;;;;4843905;29;20054;-83
2023/07/23 12:46:48;;;;;;;8.15;5.63;;;;;;;;;;4850319;29;20049;-82
2023/07/23 12:49:33;;;;;;;10.35;5.82;;;;;;;;;;4847662;29;20492;-79
2023/07/23 12:52:21;;;;;;;7.25;5.60;;;;;;;;;;4853057;29;20050;-79
2023/07/23 12:55:07;;;;;;;6.10;5.22;;;;;;;;;;4846424;29;20061;-79
2023/07/23 12:57:52;;;;;;;7.95;5.72;;;;;;;;;;4843357;29;20058;-78
2023/07/23 13:00:37;;;;;;;11.27;6.05;;;;;;;;;;4842780;29;20062;-78
2023/07/23 13:03:23;;;;;;;8.13;5.90;;;;;;;;;;4850472;29;20049;-78
2023/07/23 13:06:09;;;;;;;10.15;5.85;;;;;;;;;;4849605;29;20046;-80
2023/07/23 13:08:55;;;;;;;9.75;6.00;;;;;;;;;;4849702;29;20498;-80
2023/07/23 13:11:40;;;;;;;9.00;5.75;;;;;;;;;;4849294;29;20054;-79
2023/07/23 13:14:26;;;;;;;7.25;5.38;;;;;;;;;;4849510;29;20408;-78
2023/07/23 13:17:12;;;;;;;6.47;5.68;;;;;;;;;;4843820;29;20046;-79
2023/07/23 13:19:57;;;;;;;9.77;5.82;;;;;;;;;;4849431;29;20054;-79
2023/07/23 13:22:43;;;;;;;10.23;6.00;;;;;;;;;;4845058;29;20050;-79
2023/07/23 13:25:29;;;;;;;9.25;5.90;;;;;;;;;;4836024;29;20046;-78
2023/07/23 13:28:15;;;;;;;9.65;5.70;;;;;;;;;;4843081;29;20400;-76
2023/07/23 13:31:00;;;;;;;7.05;5.90;;;;;;;;;;4850713;29;20046;-77
2023/07/23 13:33:46;;;;;;;7.85;5.40;;;;;;;;;;4849255;29;20053;-77
2023/07/23 13:36:31;;;;;;;8.27;6.45;;;;;;;;;;4849264;29;20038;-78
2023/07/23 13:39:18;;;;;;;8.75;5.30;;;;;;;;;;4850804;29;20477;-78
2023/07/23 13:42:04;;;;;;;6.25;5.50;;;;;;;;;;4852387;29;20050;-78
2023/07/23 13:44:50;;;;;;;7.88;5.80;;;;;;;;;;4844752;29;20049;-77
2023/07/23 13:47:36;;;;;;;6.72;5.80;;;;;;;;;;4857202;29;20050;-79
2023/07/23 13:50:21;;;;;;;8.70;5.90;;;;;;;;;;4858767;29;20046;-78
2023/07/23 13:53:08;;;;;;;7.85;5.80;;;;;;;;;;4843079;29;20057;-78
2023/07/23 13:55:53;;;;;;;8.18;6.07;;;;;;;;;;4842881;29;20054;-78
2023/07/23 13:58:39;;;;;;;6.72;5.70;;;;;;;;;;4849837;29;20054;-75
2023/07/23 14:01:24;;;;;;;7.85;5.97;;;;;;;;;;4853197;29;20496;-77
2023/07/23 14:04:11;;;;;;;10.10;6.10;;;;;;;;;;4852804;29;20388;-77
2023/07/23 14:06:56;;;;;;;10.13;5.88;;;;;;;;;;4856099;29;20049;-78
2023/07/23 14:09:42;;;;;;;8.10;5.93;;;;;;;;;;4855164;29;20057;-78
2023/07/23 14:12:28;;;;;;;8.40;5.97;;;;;;;;;;4852559;29;20061;-79
2023/07/23 14:15:13;;;;;;;8.32;6.18;;;;;;;;;;4846843;29;20485;-80
2023/07/23 14:18:00;;;;;;;7.47;5.93;;;;;;;;;;4855326;29;20050;-79
2023/07/23 14:20:45;;;;;;;7.47;5.93;;;;;;;;;;4855605;29;20045;-79
2023/07/23 14:23:32;;;;;;;8.98;6.07;;;;;;;;;;4836977;29;20516;-80
2023/07/23 14:26:18;;;;;;;7.28;6.18;;;;;;;;;;4854788;29;20053;-78
2023/07/23 14:29:05;;;;;;;7.47;5.85;;;;;;;;;;4846922;29;20046;-80
2023/07/23 14:31:51;;;;;;;8.57;5.72;;;;;;;;;;4858742;29;20050;-79
2023/07/23 14:34:40;;;;;;;7.22;5.68;;;;;;;;;;4847386;29;20057;-79
2023/07/23 14:37:27;;;;;;;11.60;6.50;;;;;;;;;;4857243;29;20046;-79
2023/07/23 14:40:13;;;;;;;7.80;6.32;;;;;;;;;;4851944;29;20042;-79
2023/07/23 14:42:58;;;;;;;9.35;6.78;;;;;;;;;;4850391;29;20042;-79
2023/07/23 14:45:44;;;;;;;8.07;6.93;;;;;;;;;;4859607;29;20049;-80
2023/07/23 14:48:29;;;;;;;7.32;6.15;;;;;;;;;;4858196;29;20050;-79
2023/07/23 14:51:15;;;;;;;9.30;6.22;;;;;;;;;;4853378;29;20050;-79
2023/07/23 14:54:01;;;;;;;6.95;5.85;;;;;;;;;;4856065;29;20050;-79
2023/07/23 14:56:51;;;;;;;7.97;6.53;;;;;;;;;;4856138;29;20049;-78
2023/07/23 14:59:36;;;;;;;8.30;6.20;;;;;;;;;;4847069;29;20050;-78
2023/07/23 15:02:22;;;;;;;7.13;6.28;;;;;;;;;;4854701;29;20054;-79
2023/07/23 15:05:08;;;;;;;7.53;6.05;;;;;;;;;;4867158;29;20050;-78
2023/07/23 15:07:53;;;;;;;7.53;6.30;;;;;;;;;;4847968;29;20046;-79
2023/07/23 15:10:40;;;;;;;9.63;6.43;;;;;;;;;;4845089;29;20050;-79
2023/07/23 15:13:26;;;;;;;8.18;6.13;;;;;;;;;;4845278;29;20045;-79
2023/07/23 15:16:11;;;;;;;9.38;6.75;;;;;;;;;;4858342;29;20046;-80
2023/07/23 15:18:57;;;;;;;9.50;6.35;;;;;;;;;;4855547;29;20053;-79
2023/07/23 15:21:43;;;;;;;7.63;6.20;;;;;;;;;;4865030;29;20069;-79
2023/07/23 15:24:29;;;;;;;10.25;6.13;;;;;;;;;;4864771;29;20050;-79
2023/07/23 15:27:17;;;;;;;12.43;6.32;;;;;;;;;;4857394;29;20054;-79
2023/07/23 15:30:02;;;;;;;9.00;6.03;;;;;;;;;;4851115;29;20054;-78
2023/07/23 15:32:47;;;;;;;6.22;5.55;;;;;;;;;;4845056;29;20046;-75
2023/07/23 15:35:33;;;;;;;8.00;6.18;;;;;;;;;;4853214;29;20058;-76
2023/07/23 15:38:19;;;;;;;9.25;6.28;;;;;;;;;;4849692;29;20042;-77
2023/07/23 15:41:05;;;;;;;8.40;5.65;;;;;;;;;;4851775;29;20058;-78
2023/07/23 15:43:51;;;;;;;9.52;6.32;;;;;;;;;;4850926;29;20045;-77
2023/07/23 15:46:37;;;;;;;7.60;5.88;;;;;;;;;;4851141;29;20061;-77
2023/07/23 15:49:23;;;;;;;7.40;6.00;;;;;;;;;;4850820;29;20054;-79
2023/07/23 15:52:08;;;;;;;8.50;6.65;;;;;;;;;;4849717;29;20050;-79
2023/07/23 15:54:55;;;;;;;7.97;6.22;;;;;;;;;;4850520;29;20050;-78
2023/07/23 15:57:40;;;;;;;11.05;6.35;;;;;;;;;;4850542;29;20539;-78
2023/07/23 16:00:25;;;;;;;11.05;6.97;;;;;;;;;;4849294;29;20053;-78
2023/07/23 16:03:11;;;;;;;8.60;6.80;;;;;;;;;;4857266;29;20042;-77
2023/07/23 16:06:00;;;;;;;9.63;7.60;;;;;;;;;;4849679;29;20050;-80
2023/07/23 16:08:45;;;;;;;11.15;8.18;;;;;;;;;;4844232;29;20472;-78
2023/07/23 16:11:31;;;;;;;9.27;8.35;;;;;;;;;;4850673;29;20061;-78
2023/07/23 16:14:16;;;;;;;13.20;11.05;;;;;;;;;;4850253;29;20050;-79
2023/07/23 16:17:02;;;;;;;12.85;9.25;;;;;;;;;;4862650;29;20496;-81
2023/07/23 16:19:47;;;;;;;20.73;14.60;;;;;;;;;;4863337;29;20049;-79
2023/07/23 16:22:33;;;;;;;12.02;10.80;;;;;;;;;;4844041;29;20046;-77
2023/07/23 16:25:18;;;;;;;14.43;11.57;;;;;;;;;;4830412;29;20424;-78
2023/07/23 16:28:06;;;;;;;12.65;11.02;;;;;;;;;;4841163;29;20086;-77
2023/07/23 16:30:54;;;;;;;17.52;11.77;;;;;;;;;;4843515;29;20049;-77
2023/07/23 16:33:40;;;;;;;12.95;11.63;;;;;;;;;;4855202;29;20520;-78
2023/07/23 16:36:28;;;;;;;14.05;12.30;;;;;;;;;;4853209;29;20054;-79
2023/07/23 16:39:16;;;;;;;12.63;11.32;;;;;;;;;;4866975;29;20038;-79
2023/07/23 16:42:05;;;;;;;14.38;12.18;;;;;;;;;;4852268;29;20046;-78
2023/07/23 16:44:51;;;;;;;15.30;12.60;;;;;;;;;;4846712;29;20049;-79
2023/07/23 16:47:40;;;;;;;13.50;12.10;;;;;;;;;;4857338;29;20032;-79
2023/07/23 16:50:26;;;;;;;16.42;12.18;;;;;;;;;;4853974;29;20054;-78
2023/07/23 16:53:17;;;;;;;15.10;12.48;;;;;;;;;;4856475;29;20057;-78
2023/07/23 16:56:05;;;;;;;14.40;12.80;;;;;;;;;;4856895;29;20049;-78
2023/07/23 16:58:55;;;;;;;15.00;12.10;;;;;;;;;;4842516;29;20054;-77
2023/07/23 17:01:42;;;;;;;48.33;33.10;;;;;;;;;;4843800;29;20058;-81
2023/07/23 17:04:27;;;;;;;13.25;11.75;;;;;;;;;;4849523;29;20050;-81
2023/07/23 17:07:12;;;;;;;18.90;13.80;;;;;;;;;;4835993;29;20050;-82
2023/07/23 17:09:58;;;;;;;16.27;14.10;;;;;;;;;;4843896;29;20133;-81
2023/07/23 17:12:44;;;;;;;20.13;13.60;;;;;;;;;;4843302;29;20049;-81
2023/07/23 17:15:29;;;;;;;18.52;14.43;;;;;;;;;;4843451;29;20049;-81
2023/07/23 17:18:15;;;;;;;17.02;14.02;;;;;;;;;;4848416;29;20046;-81
2023/07/23 17:21:02;;;;;;;15.82;13.45;;;;;;;;;;4849535;29;20058;-81
2023/07/23 17:23:47;;;;;;;22.00;14.88;;;;;;;;;;4843102;29;20046;-80
2023/07/23 17:26:35;;;;;;;16.95;14.90;;;;;;;;;;4849866;29;20053;-81
2023/07/23 17:29:21;;;;;;;16.85;13.30;;;;;;;;;;4850419;29;20473;-86
2023/07/23 17:32:07;;;;;;;23.05;18.33;;;;;;;;;;4843157;29;20492;-87
2023/07/23 17:34:52;;;;;;;22.13;17.48;;;;;;;;;;4830384;29;20057;-87
2023/07/23 17:37:39;;;;;;;23.42;17.27;;;;;;;;;;4844194;29;20042;-80
2023/07/23 17:40:23;;;;;;;40.35;28.75;;;;;;;;;;4849166;29;20042;-79
2023/07/23 17:43:08;;;;;;;18.63;14.73;;;;;;;;;;4843467;29;20062;-81
2023/07/23 17:45:53;;;;;;;19.55;15.55;;;;;;;;;;4836035;29;20050;-79
2023/07/23 17:48:39;;;;;;;17.00;14.40;;;;;;;;;;4849086;29;20046;-83
2023/07/23 17:51:32;;;;;;;18.42;15.13;;;;;;;;;;4829920;29;20496;-83
2023/07/23 17:54:20;;;;;;;17.63;15.60;;;;;;;;;;4842945;29;20046;-81
2023/07/23 17:57:05;;;;;;;17.30;15.38;;;;;;;;;;4843453;29;20388;-83
2023/07/23 17:59:51;;;;;;;20.05;15.73;;;;;;;;;;4844723;29;20065;-82
2023/07/23 18:02:36;;;;;;;20.83;16.30;;;;;;;;;;4843176;29;20050;-82